Etusivu
METAR-TAF:

METAR-TAF

Lentoasemat :

Heringsdorf, Saksa

Leveyspiiri: 53-53N, Pituuspiiri: 014-09E, korkeus merenpinnasta: 28 m

Tämänhetkinen sää

Tämä raportti tehtiin 3 tuntia ja 2 minuuttia sitten, kello 14.50 UTC
Tuuli 8 kn etelästä/lounaasta
Lämpötila 3°C
Kosteus 87%
Ilmanpaine 1016 hPa
Näkyvyys 10 km tai enemmän
ei pilviä alle 1500 m:ssä eikä cumulonimbus-pilviä

METAR: EDAH 051450Z 20008KT CAVOK 03/01 Q1016

Aika: 18:52 (17:52 UTC)

Sääennuste

Tämä raportti tehtiin 3 tuntia ja 52 minuuttia sitten, kello 14.00 UTC
Ennuste voimassa 05. päivästä klo 15 UTC - 05. päivään klo 24 UTC
Tuuli 9 kn lounaasta
Näkyvyys 10 km tai enemmän
ei pilviä alle 1500 m:ssä eikä cumulonimbus-pilviä
Ajoittain
05. päivästä klo 21 UTC - 05. päivään klo 24 UTC
Hajonneita pilviä 900 ft:n korkeudessa

TAF: EDAH 051400Z 0515/0524 22009KT CAVOK TEMPO 0521/0524 BKN009

Säähavainnot ja -ennusteet yli 4000 lentoasemalta (METAR- ja TAF-raportit).

Käytössä olevat sääasemat on merkitty karttaan keltaisilla ja punaisilla pisteillä.

Aseta hiiri pisteen päälle nähdäksesi sääaseman nimen.

Klikkaa sitten nähdäksesi säähavainnot ja -ennusteet.

Kartan vaihtaminen: klikkaa mustalla rastilla varustettuja vihreitä pisteitä, niin voit zoomata sisään; viivalla varustettua vihreää pistettä, niin voit zoomata ulos tai vihreitä nuolia, niin pääset viereisille kartoille.


METAR-TAF: